createdAt,value
2019-06-01T00:00:12.826Z,7.20
2019-06-01T00:02:45.309Z,7.33
2019-06-01T00:05:14.633Z,6.50
2019-06-01T00:07:44.878Z,6.83
2019-06-01T00:10:14.457Z,7.77
2019-06-01T00:12:43.586Z,8.00
2019-06-01T00:15:12.833Z,8.00
2019-06-01T00:17:42.020Z,8.17
2019-06-01T00:20:11.563Z,8.00
2019-06-01T00:22:41.200Z,7.93
2019-06-01T00:25:10.601Z,7.47
2019-06-01T00:27:40.464Z,7.57
2019-06-01T00:30:10.011Z,9.20
2019-06-01T00:32:39.434Z,9.00
2019-06-01T00:35:08.668Z,8.10
2019-06-01T00:37:37.860Z,8.63
2019-06-01T00:40:07.610Z,8.03
2019-06-01T00:42:36.715Z,7.17
2019-06-01T00:45:06.388Z,8.53
2019-06-01T00:47:35.547Z,8.10
2019-06-01T00:50:05.963Z,8.73
2019-06-01T00:52:34.979Z,9.07
2019-06-01T00:55:04.865Z,8.20
2019-06-01T00:57:33.883Z,8.10
2019-06-01T01:00:02.971Z,8.17
2019-06-01T01:02:31.967Z,7.83
2019-06-01T01:05:22.103Z,7.37
2019-06-01T01:07:52.092Z,7.50
2019-06-01T01:10:22.147Z,7.60
2019-06-01T01:13:06.946Z,8.97
2019-06-01T01:15:36.627Z,8.50
2019-06-01T01:18:07.496Z,9.60
2019-06-01T01:20:38.659Z,9.23
2019-06-01T01:23:08.442Z,8.57
2019-06-01T01:25:37.833Z,9.43
2019-06-01T01:28:07.262Z,10.27
2019-06-01T01:30:36.554Z,9.97
2019-06-01T01:33:06.136Z,9.70
2019-06-01T01:35:35.432Z,10.70
2019-06-01T01:38:04.809Z,9.60
2019-06-01T01:40:33.891Z,9.80
2019-06-01T01:43:03.336Z,9.30
2019-06-01T01:45:32.715Z,10.20
2019-06-01T01:48:01.994Z,10.33
2019-06-01T01:50:32.045Z,11.33
2019-06-01T01:53:01.237Z,10.73
2019-06-01T01:55:30.467Z,10.77
2019-06-01T01:57:59.601Z,10.73
2019-06-01T02:00:47.932Z,11.77
2019-06-01T02:03:17.036Z,10.83
2019-06-01T02:05:46.450Z,10.50
2019-06-01T02:08:24.359Z,11.83
2019-06-01T02:10:53.424Z,10.60
2019-06-01T02:13:22.404Z,10.90
2019-06-01T02:15:52.250Z,11.40
2019-06-01T02:18:21.873Z,11.83
2019-06-01T02:20:52.187Z,11.70
2019-06-01T02:23:21.486Z,11.13
2019-06-01T02:25:50.649Z,11.70
2019-06-01T02:28:19.736Z,11.30
2019-06-01T02:30:48.937Z,11.00
2019-06-01T02:33:18.201Z,10.90
2019-06-01T02:35:47.325Z,10.80
2019-06-01T02:38:19.622Z,11.13
2019-06-01T02:40:48.935Z,10.60
2019-06-01T02:43:21.528Z,11.10
2019-06-01T02:45:51.155Z,10.27
2019-06-01T02:48:20.637Z,11.17
2019-06-01T02:50:50.285Z,11.00
2019-06-01T02:53:19.627Z,10.97
2019-06-01T02:55:49.307Z,10.20
2019-06-01T02:58:18.467Z,10.47
2019-06-01T03:01:14.234Z,10.33
2019-06-01T03:03:43.655Z,9.70
2019-06-01T03:06:15.722Z,10.47
2019-06-01T03:08:47.229Z,10.07
2019-06-01T03:11:17.913Z,9.30
2019-06-01T03:13:48.853Z,8.50
2019-06-01T03:16:21.038Z,8.77
2019-06-01T03:18:52.308Z,10.03
2019-06-01T03:21:24.663Z,9.90
2019-06-01T03:23:56.588Z,9.73
2019-06-01T03:26:28.681Z,10.60
2019-06-01T03:29:03.226Z,10.00
2019-06-01T03:31:31.580Z,9.43
2019-06-01T03:34:01.630Z,11.37
2019-06-01T03:36:31.511Z,10.50
2019-06-01T03:39:02.025Z,10.87
2019-06-01T03:41:32.452Z,9.70
2019-06-01T03:44:02.550Z,11.00
2019-06-01T03:46:31.950Z,9.60
2019-06-01T03:49:01.563Z,9.57
2019-06-01T03:51:30.674Z,10.70
2019-06-01T03:54:00.895Z,10.10
2019-06-01T03:56:30.275Z,10.33
2019-06-01T03:58:59.394Z,10.43
2019-06-01T04:01:28.447Z,10.10
2019-06-01T04:03:57.704Z,10.23
2019-06-01T04:06:26.924Z,10.63
2019-06-01T04:08:56.063Z,11.37
2019-06-01T04:11:25.220Z,10.23
2019-06-01T04:13:54.253Z,9.53
2019-06-01T04:16:23.474Z,11.63
2019-06-01T04:18:52.968Z,10.80
2019-06-01T04:21:22.141Z,10.67
2019-06-01T04:23:51.217Z,10.53
2019-06-01T04:26:20.482Z,10.70
2019-06-01T04:28:53.454Z,10.50
2019-06-01T04:31:22.699Z,10.97
2019-06-01T04:33:51.812Z,10.47
2019-06-01T04:36:20.806Z,10.33
2019-06-01T04:38:49.930Z,10.67
2019-06-01T04:41:19.073Z,10.70
2019-06-01T04:43:48.190Z,10.80
2019-06-01T04:46:17.195Z,11.43
2019-06-01T04:48:46.192Z,10.13
2019-06-01T04:51:15.302Z,11.50
2019-06-01T04:53:44.514Z,12.33
2019-06-01T04:56:13.570Z,10.37
2019-06-01T04:58:42.624Z,12.50
2019-06-01T05:01:11.648Z,13.10
2019-06-01T05:03:40.813Z,11.63
2019-06-01T05:06:11.245Z,13.20
2019-06-01T05:08:40.581Z,13.87
2019-06-01T05:11:10.307Z,12.53
2019-06-01T05:13:40.524Z,12.77
2019-06-01T05:16:10.064Z,12.87
2019-06-01T05:18:39.265Z,10.10
2019-06-01T05:24:29.060Z,11.50
2019-06-01T05:26:59.356Z,10.67
2019-06-01T05:29:28.386Z,10.10
2019-06-01T05:31:57.382Z,11.03
2019-06-01T05:34:26.264Z,10.77
2019-06-01T05:36:55.241Z,10.93
2019-06-01T05:39:24.254Z,10.60
2019-06-01T05:41:53.464Z,9.77
2019-06-01T05:44:22.557Z,8.40
2019-06-01T05:46:51.526Z,9.33
2019-06-01T05:49:20.508Z,9.33
2019-06-01T05:51:49.956Z,10.27
2019-06-01T05:54:19.101Z,10.33
2019-06-01T05:56:48.518Z,10.43
2019-06-01T05:59:18.216Z,11.10
2019-06-01T06:01:47.448Z,9.43
2019-06-01T06:04:17.472Z,9.30
2019-06-01T06:06:46.636Z,9.87
2019-06-01T06:09:17.006Z,9.97
2019-06-01T06:11:46.311Z,10.40
2019-06-01T06:14:15.509Z,9.47
2019-06-01T06:16:44.517Z,10.03
2019-06-01T06:19:14.782Z,9.90
2019-06-01T06:21:44.384Z,9.40
2019-06-01T06:24:14.307Z,10.03
2019-06-01T06:26:43.529Z,10.00
2019-06-01T06:29:13.083Z,9.80
2019-06-01T06:31:42.075Z,9.80
2019-06-01T06:34:11.043Z,9.37
2019-06-01T06:36:40.081Z,9.70
2019-06-01T06:39:09.142Z,9.17
2019-06-01T06:41:38.359Z,9.03
2019-06-01T06:44:07.336Z,9.10
2019-06-01T06:46:36.453Z,7.60
2019-06-01T06:49:05.509Z,8.00
2019-06-01T06:51:34.782Z,6.90
2019-06-01T06:54:03.895Z,6.67
2019-06-01T06:56:32.922Z,6.40
2019-06-01T06:59:02.073Z,7.03
2019-06-01T07:01:31.156Z,6.30
2019-06-01T07:04:12.192Z,6.70
2019-06-01T07:06:30.972Z,5.60
2019-06-01T07:08:59.950Z,5.90
2019-06-01T07:11:29.465Z,5.70
2019-06-01T07:13:58.555Z,5.00
2019-06-01T07:16:27.682Z,5.10
2019-06-01T07:18:56.936Z,5.07
2019-06-01T07:21:26.263Z,5.10
2019-06-01T07:23:55.668Z,5.00
2019-06-01T07:26:26.091Z,4.40
2019-06-01T07:28:55.645Z,4.60
2019-06-01T07:31:24.844Z,4.90
2019-06-01T07:33:53.934Z,4.17
2019-06-01T07:36:22.975Z,4.47
2019-06-01T07:38:52.086Z,5.10
2019-06-01T07:41:21.142Z,4.50
2019-06-01T07:43:50.313Z,3.70
2019-06-01T07:46:20.830Z,4.77
2019-06-01T07:48:50.048Z,5.87
2019-06-01T07:51:19.032Z,5.47
2019-06-01T07:53:48.078Z,4.57
2019-06-01T07:56:17.156Z,3.83
2019-06-01T07:58:46.166Z,5.90
2019-06-01T08:01:15.280Z,4.00
2019-06-01T08:03:44.275Z,5.53
2019-06-01T08:06:13.268Z,4.33
2019-06-01T08:08:42.241Z,4.20
2019-06-01T08:11:11.342Z,4.67
2019-06-01T08:13:40.453Z,5.03
2019-06-01T08:16:09.643Z,4.40
2019-06-01T08:18:38.649Z,4.77
2019-06-01T08:21:07.668Z,5.10
2019-06-01T08:23:36.693Z,4.70
2019-06-01T08:26:05.822Z,3.60
2019-06-01T08:28:35.000Z,4.70
2019-06-01T08:31:04.434Z,3.77
2019-06-01T08:33:34.949Z,4.10
2019-06-01T08:36:04.308Z,3.97
2019-06-01T08:38:33.781Z,4.90
2019-06-01T08:41:03.126Z,4.40
2019-06-01T08:43:32.253Z,4.40
2019-06-01T08:46:01.374Z,4.27
2019-06-01T08:48:30.440Z,4.27
2019-06-01T08:50:59.415Z,3.70
2019-06-01T08:53:28.309Z,4.10
2019-06-01T08:55:57.336Z,5.73
2019-06-01T08:58:26.418Z,4.13
2019-06-01T09:00:55.485Z,5.70
2019-06-01T09:03:25.774Z,5.33
2019-06-01T09:05:55.168Z,5.13
2019-06-01T09:08:25.557Z,4.70
2019-06-01T09:10:54.898Z,4.83
2019-06-01T09:13:25.128Z,5.33
2019-06-01T09:15:54.359Z,4.97
2019-06-01T09:18:23.349Z,5.60
2019-06-01T09:20:52.321Z,7.10
2019-06-01T09:23:21.620Z,5.00
2019-06-01T09:25:50.660Z,5.43
2019-06-01T09:28:20.573Z,4.83
2019-06-01T09:30:49.719Z,5.40
2019-06-01T09:33:18.600Z,5.17
2019-06-01T09:35:55.435Z,4.33
2019-06-01T09:38:18.392Z,6.60
2019-06-01T09:40:47.560Z,5.97
2019-06-01T09:43:16.743Z,6.57
2019-06-01T09:45:46.061Z,5.63
2019-06-01T09:48:15.144Z,6.13
2019-06-01T09:50:44.325Z,4.97
2019-06-01T09:53:13.772Z,6.03
2019-06-01T09:55:42.980Z,6.10
2019-06-01T09:58:12.035Z,6.33
2019-06-01T10:00:43.646Z,5.30
2019-06-01T10:03:12.106Z,4.77
2019-06-01T10:05:41.188Z,5.03
2019-06-01T10:08:10.322Z,4.30
2019-06-01T10:10:39.318Z,6.87
2019-06-01T10:13:08.399Z,5.47
2019-06-01T10:15:38.488Z,5.90
2019-06-01T10:18:07.660Z,5.37
2019-06-01T10:20:36.983Z,6.17
2019-06-01T10:23:06.476Z,4.40
2019-06-01T10:25:36.487Z,4.33
2019-06-01T10:28:05.686Z,4.50
2019-06-01T10:30:35.785Z,3.90
2019-06-01T10:33:05.648Z,5.20
2019-06-01T10:35:34.977Z,5.60
2019-06-01T10:38:04.202Z,4.37
2019-06-01T10:40:33.437Z,4.77
2019-06-01T10:43:02.628Z,4.17
2019-06-01T10:45:31.884Z,3.70
2019-06-01T10:48:00.832Z,5.37
2019-06-01T10:50:29.782Z,7.00
2019-06-01T10:52:58.668Z,3.63
2019-06-01T10:55:27.665Z,4.53
2019-06-01T10:57:56.745Z,3.97
2019-06-01T11:00:37.799Z,4.27
2019-06-01T11:02:56.581Z,3.83
2019-06-01T11:05:25.662Z,3.80
2019-06-01T11:07:54.652Z,3.70
2019-06-01T11:10:23.809Z,3.73
2019-06-01T11:12:52.810Z,3.00
2019-06-01T11:15:21.882Z,3.70
2019-06-01T11:17:50.972Z,4.07
2019-06-01T11:20:20.582Z,3.90
2019-06-01T11:22:49.572Z,3.80
2019-06-01T11:25:18.748Z,3.20
2019-06-01T11:27:47.839Z,3.43
2019-06-01T11:30:17.615Z,3.50
2019-06-01T11:32:46.645Z,3.23
2019-06-01T11:35:15.821Z,4.00
2019-06-01T11:37:44.782Z,3.00
2019-06-01T11:40:13.803Z,3.67
2019-06-01T11:42:43.136Z,3.30
2019-06-01T11:45:12.852Z,3.37
2019-06-01T11:47:42.926Z,3.23
2019-06-01T11:50:12.208Z,2.80
2019-06-01T11:52:41.243Z,3.80
2019-06-01T11:55:10.905Z,3.17
2019-06-01T11:57:39.917Z,2.90
2019-06-01T12:00:10.459Z,2.90
2019-06-01T12:02:39.734Z,3.37
2019-06-01T12:05:09.647Z,3.10
2019-06-01T12:07:39.729Z,3.07
2019-06-01T12:10:09.353Z,3.10
2019-06-01T12:12:38.460Z,2.90
2019-06-01T12:15:08.054Z,3.17
2019-06-01T12:17:38.580Z,2.80
2019-06-01T12:20:08.416Z,2.40
2019-06-01T12:22:38.689Z,2.73
2019-06-01T12:25:08.390Z,2.70
2019-06-01T12:27:37.564Z,2.57
2019-06-01T12:30:07.149Z,2.67
2019-06-01T12:32:36.169Z,3.07
2019-06-01T12:35:05.665Z,2.77
2019-06-01T12:37:55.028Z,3.27
2019-06-01T12:40:07.733Z,3.50
2019-06-01T12:42:36.974Z,3.80
2019-06-01T12:45:06.265Z,4.37
2019-06-01T12:47:35.354Z,3.13
2019-06-01T12:50:04.872Z,8.50
2019-06-01T12:52:33.921Z,3.37
2019-06-01T12:55:03.047Z,2.70
2019-06-01T12:57:31.956Z,3.60
2019-06-01T13:00:01.151Z,3.03
2019-06-01T13:02:30.027Z,5.53
2019-06-01T13:04:59.065Z,3.10
2019-06-01T13:07:28.044Z,3.30
2019-06-01T13:09:57.400Z,3.00
2019-06-01T13:12:26.383Z,2.90
2019-06-01T13:14:55.405Z,3.10
2019-06-01T13:17:24.468Z,2.43
2019-06-01T13:19:53.395Z,3.50
2019-06-01T13:22:22.368Z,2.80
2019-06-01T13:24:52.071Z,2.23
2019-06-01T13:27:21.152Z,2.60
2019-06-01T13:29:50.306Z,2.93
2019-06-01T13:32:19.373Z,2.33
2019-06-01T13:34:49.150Z,3.00
2019-06-01T13:37:18.271Z,2.40
2019-06-01T13:39:53.799Z,2.50
2019-06-01T13:42:17.991Z,2.30
2019-06-01T13:44:47.393Z,3.00
2019-06-01T13:47:16.525Z,2.33
2019-06-01T13:49:46.874Z,2.50
2019-06-01T13:52:16.397Z,2.30
2019-06-01T13:54:46.449Z,2.20
2019-06-01T13:57:15.696Z,2.47
2019-06-01T13:59:44.979Z,2.50
2019-06-01T14:02:13.979Z,2.30
2019-06-01T14:04:42.994Z,2.10
2019-06-01T14:07:11.986Z,2.20
2019-06-01T14:09:41.083Z,2.30
2019-06-01T14:12:10.172Z,2.83
2019-06-01T14:14:39.163Z,2.60
2019-06-01T14:17:08.191Z,2.10
2019-06-01T14:19:37.214Z,2.00
2019-06-01T14:22:06.431Z,2.00
2019-06-01T14:24:35.305Z,2.10
2019-06-01T14:27:04.558Z,2.10
2019-06-01T14:29:33.673Z,2.40
2019-06-01T14:32:02.684Z,1.93
2019-06-01T14:34:31.711Z,2.40
2019-06-01T14:37:00.593Z,2.60
2019-06-01T14:39:29.571Z,2.47
2019-06-01T14:41:58.496Z,2.50
2019-06-01T14:44:27.547Z,2.20
2019-06-01T14:47:04.963Z,2.20
2019-06-01T14:49:27.089Z,2.27
2019-06-01T14:51:56.068Z,2.30
2019-06-01T14:54:24.972Z,2.33
2019-06-01T14:56:54.100Z,2.40
2019-06-01T14:59:22.961Z,2.00
2019-06-01T15:01:52.213Z,2.33
2019-06-01T15:05:06.736Z,2.10
2019-06-01T15:07:35.828Z,2.13
2019-06-01T15:10:06.704Z,2.40
2019-06-01T15:12:35.719Z,2.30
2019-06-01T15:15:05.963Z,2.07
2019-06-01T15:17:35.026Z,2.30
2019-06-01T15:20:04.826Z,2.10
2019-06-01T15:22:33.863Z,2.27
2019-06-01T15:25:03.604Z,2.10
2019-06-01T15:27:32.915Z,1.87
2019-06-01T15:30:03.142Z,1.93
2019-06-01T15:32:32.362Z,1.93
2019-06-01T15:35:01.363Z,2.17
2019-06-01T15:37:30.293Z,2.17
2019-06-01T15:39:59.307Z,2.50
2019-06-01T15:42:28.390Z,1.87
2019-06-01T15:44:57.573Z,2.00
2019-06-01T15:47:26.725Z,1.90
2019-06-01T15:49:55.803Z,1.87
2019-06-01T15:52:24.852Z,2.00
2019-06-01T15:54:54.237Z,2.13
2019-06-01T15:57:23.491Z,1.80
2019-06-01T15:59:52.487Z,2.10
2019-06-01T16:02:21.636Z,2.00
2019-06-01T16:04:50.621Z,2.00
2019-06-01T16:07:19.693Z,1.90
2019-06-01T16:09:48.720Z,1.80
2019-06-01T16:12:17.724Z,1.90
2019-06-01T16:14:46.889Z,2.20
2019-06-01T16:17:16.001Z,1.57
2019-06-01T16:19:44.861Z,1.70
2019-06-01T16:22:13.777Z,1.97
2019-06-01T16:24:42.796Z,1.87
2019-06-01T16:27:11.880Z,2.13
2019-06-01T16:29:40.967Z,1.83
2019-06-01T16:32:10.312Z,1.77
2019-06-01T16:34:39.274Z,1.97
2019-06-01T16:37:08.283Z,1.97
2019-06-01T16:39:37.256Z,2.63
2019-06-01T16:42:06.419Z,2.17
2019-06-01T16:44:35.377Z,3.00
2019-06-01T16:47:04.580Z,2.50
2019-06-01T16:49:34.015Z,2.07
2019-06-01T16:52:03.387Z,2.23
2019-06-01T16:54:32.448Z,1.97
2019-06-01T16:57:01.425Z,3.27
2019-06-01T16:59:30.442Z,1.90
2019-06-01T17:02:00.987Z,1.87
2019-06-01T17:04:30.063Z,2.07
2019-06-01T17:06:59.072Z,2.33
2019-06-01T17:09:27.975Z,2.10
2019-06-01T17:11:56.975Z,2.23
2019-06-01T17:14:25.990Z,2.43
2019-06-01T17:16:54.879Z,2.20
2019-06-01T17:19:23.801Z,1.87
2019-06-01T17:21:52.763Z,2.27
2019-06-01T17:24:21.856Z,1.93
2019-06-01T17:26:51.096Z,1.90
2019-06-01T17:29:20.403Z,3.40
2019-06-01T17:31:54.306Z,2.90
2019-06-01T17:34:20.203Z,2.33
2019-06-01T17:36:49.237Z,2.23
2019-06-01T17:39:18.226Z,2.47
2019-06-01T17:41:47.357Z,1.90
2019-06-01T17:44:16.324Z,2.43
2019-06-01T17:46:53.645Z,1.73
2019-06-01T17:49:16.137Z,2.37
2019-06-01T17:51:45.172Z,2.13
2019-06-01T17:54:14.326Z,2.30
2019-06-01T17:56:43.496Z,2.33
2019-06-01T17:59:12.764Z,1.80
2019-06-01T18:01:42.652Z,1.87
2019-06-01T18:04:12.190Z,2.00
2019-06-01T18:06:41.297Z,2.00
2019-06-01T18:09:10.425Z,1.77
2019-06-01T18:11:39.394Z,2.23
2019-06-01T18:14:12.275Z,2.00
2019-06-01T18:16:42.391Z,1.90
2019-06-01T18:19:12.556Z,2.00
2019-06-01T18:21:42.158Z,2.17
2019-06-01T18:24:13.124Z,1.80
2019-06-01T18:26:46.706Z,1.90
2019-06-01T18:29:18.194Z,1.90
2019-06-01T18:31:47.433Z,1.83
2019-06-01T18:34:18.061Z,2.70
2019-06-01T18:36:47.789Z,2.20
2019-06-01T18:39:17.770Z,2.63
2019-06-01T18:41:46.982Z,1.90
2019-06-01T18:44:19.197Z,6.10
2019-06-01T18:46:48.345Z,2.50
2019-06-01T18:49:18.277Z,2.00
2019-06-01T18:51:47.568Z,2.90
2019-06-01T18:54:16.644Z,2.20
2019-06-01T18:56:45.664Z,2.87
2019-06-01T18:59:14.843Z,3.93
2019-06-01T19:01:44.196Z,4.80
2019-06-01T19:04:13.926Z,4.30
2019-06-01T19:06:43.379Z,5.07
2019-06-01T19:09:13.463Z,4.33
2019-06-01T19:11:43.217Z,4.40
2019-06-01T19:14:13.909Z,5.67
2019-06-01T19:16:43.618Z,5.27
2019-06-01T19:19:14.446Z,5.40
2019-06-01T19:21:44.305Z,15.03
2019-06-01T19:24:14.680Z,5.53
2019-06-01T19:26:44.442Z,5.47
2019-06-01T19:29:14.885Z,7.17
2019-06-01T19:31:44.480Z,6.57
2019-06-01T19:34:15.100Z,6.40
2019-06-01T19:36:46.818Z,8.47
2019-06-01T19:39:17.406Z,7.33
2019-06-01T19:41:47.264Z,7.37
2019-06-01T19:44:17.875Z,7.50
2019-06-01T19:46:47.232Z,7.10
2019-06-01T19:49:17.118Z,7.80
2019-06-01T19:51:46.597Z,10.90
2019-06-01T19:54:16.967Z,11.37
2019-06-01T19:56:46.333Z,9.83
2019-06-01T19:59:16.084Z,7.80
2019-06-01T20:01:45.438Z,8.67
2019-06-01T20:04:14.595Z,8.67
2019-06-01T20:06:43.839Z,9.47
2019-06-01T20:09:13.065Z,9.53
2019-06-01T20:11:42.331Z,9.20
2019-06-01T20:14:12.162Z,8.83
2019-06-01T20:16:46.972Z,11.87
2019-06-01T20:19:16.131Z,9.70
2019-06-01T20:21:45.171Z,13.70
2019-06-01T20:24:15.278Z,14.00
2019-06-01T20:26:48.979Z,15.30
2019-06-01T20:29:15.646Z,15.00
2019-06-01T20:31:44.957Z,12.77
2019-06-01T20:34:15.624Z,12.40
2019-06-01T20:36:44.849Z,8.10
2019-06-01T20:39:14.367Z,8.70
2019-06-01T20:41:43.707Z,8.90
2019-06-01T20:44:12.833Z,8.00
2019-06-01T20:46:42.233Z,7.77
2019-06-01T20:49:12.739Z,7.60
2019-06-01T20:51:44.014Z,7.87
2019-06-01T20:54:14.883Z,8.50
2019-06-01T20:56:44.371Z,7.17
2019-06-01T20:59:16.506Z,6.70
2019-06-01T21:01:44.336Z,6.30
2019-06-01T21:04:14.106Z,6.33
2019-06-01T21:06:43.063Z,6.20
2019-06-01T21:09:13.626Z,5.20
2019-06-01T21:11:43.033Z,6.00
2019-06-01T21:14:12.387Z,6.40
2019-06-01T21:16:41.561Z,4.97
2019-06-01T21:19:11.032Z,8.40
2019-06-01T21:21:40.675Z,7.10
2019-06-01T21:24:10.042Z,8.20
2019-06-01T21:26:39.224Z,6.30
2019-06-01T21:29:09.089Z,6.17
2019-06-01T21:31:38.186Z,5.53
2019-06-01T21:34:07.669Z,7.47
2019-06-01T21:36:37.063Z,7.40
2019-06-01T21:39:08.228Z,7.27
2019-06-01T21:41:37.228Z,5.83
2019-06-01T21:44:06.225Z,5.80
2019-06-01T21:46:35.296Z,6.50
2019-06-01T21:49:04.787Z,5.50
2019-06-01T21:51:34.062Z,5.60
2019-06-01T21:54:03.773Z,5.80
2019-06-01T21:56:33.063Z,5.83
2019-06-01T21:59:02.973Z,5.83
2019-06-01T22:01:32.524Z,5.90
2019-06-01T22:04:02.028Z,6.40
2019-06-01T22:06:38.193Z,5.87
2019-06-01T22:09:08.382Z,8.57
2019-06-01T22:11:37.733Z,6.37
2019-06-01T22:14:07.066Z,6.40
2019-06-01T22:16:36.515Z,7.80
2019-06-01T22:19:05.928Z,5.93
2019-06-01T22:21:35.498Z,5.70
2019-06-01T22:24:08.204Z,6.40
2019-06-01T22:26:37.726Z,6.20
2019-06-01T22:29:07.188Z,6.33
2019-06-01T22:31:36.766Z,6.83
2019-06-01T22:34:09.924Z,6.17
2019-06-01T22:36:40.002Z,7.00
2019-06-01T22:39:10.330Z,7.20
2019-06-01T22:41:40.397Z,6.93
2019-06-01T22:44:10.472Z,6.70
2019-06-01T22:46:40.210Z,5.97
2019-06-01T22:49:13.438Z,6.27
2019-06-01T22:51:43.636Z,5.60
2019-06-01T22:54:25.140Z,6.00
2019-06-01T22:56:55.022Z,5.20
2019-06-01T22:59:28.668Z,5.60
2019-06-01T23:02:00.281Z,5.20
2019-06-01T23:04:31.525Z,5.80
2019-06-01T23:07:05.846Z,5.10
2019-06-01T23:09:35.546Z,4.80
2019-06-01T23:15:06.721Z,5.43
2019-06-01T23:17:35.727Z,4.60
2019-06-01T23:20:05.762Z,4.70
2019-06-01T23:22:34.960Z,5.20
2019-06-01T23:25:04.355Z,4.90
2019-06-01T23:27:33.531Z,4.63
2019-06-01T23:30:02.567Z,5.47
2019-06-01T23:32:32.719Z,5.40
2019-06-01T23:35:01.941Z,5.00
2019-06-01T23:37:30.975Z,4.80
2019-06-01T23:39:59.952Z,5.30
2019-06-01T23:42:29.026Z,5.70
2019-06-01T23:44:58.155Z,6.50
2019-06-01T23:47:27.435Z,6.13
2019-06-01T23:49:56.660Z,7.20
2019-06-01T23:52:25.868Z,6.30
2019-06-01T23:54:54.990Z,6.83
2019-06-01T23:57:24.103Z,7.27
2019-06-01T23:59:53.300Z,7.50
